Time;durP1;ratioP1;P1;durP2;ratioP2;P2;SDS_P1;SDS_P2;PMS_P1;PMS_P2;Temp;Humidity;BMP_temperature;BMP_pressure;BME280_temperature;BME280_humidity;BME280_pressure;Samples;Min_cycle;Max_cycle;Signal;HPM_P1;HPM_P2
2021/05/21 00:01:18;;;;;;;4.15;1.45;;;12.30;79.80;;;;;;5001925;28;20034;-83
2021/05/21 00:03:44;;;;;;;3.70;1.67;;;12.30;79.20;;;;;;4961343;28;20031;-85
2021/05/21 00:06:10;;;;;;;5.15;1.70;;;12.30;79.00;;;;;;4949821;28;20035;-84
2021/05/21 00:08:36;;;;;;;5.53;1.45;;;12.40;78.90;;;;;;4944346;28;20047;-84
2021/05/21 00:11:02;;;;;;;3.13;1.42;;;12.40;78.80;;;;;;4962588;28;20039;-85
2021/05/21 00:13:28;;;;;;;6.03;1.50;;;12.40;79.20;;;;;;4941573;28;20038;-83
2021/05/21 00:15:54;;;;;;;5.53;1.35;;;12.40;79.20;;;;;;4959766;28;20030;-83
2021/05/21 00:18:20;;;;;;;7.28;1.80;;;12.40;79.10;;;;;;4975567;28;20039;-84
2021/05/21 00:20:49;;;;;;;4.20;1.42;;;12.40;79.30;;;;;;4964750;28;20035;-84
2021/05/21 00:23:16;;;;;;;12.30;1.67;;;12.40;79.40;;;;;;4963110;28;20069;-83
2021/05/21 00:25:42;;;;;;;6.60;1.52;;;12.40;79.50;;;;;;4939918;28;20042;-85
2021/05/21 00:28:07;;;;;;;3.13;1.50;;;12.40;79.60;;;;;;4955469;28;20054;-84
2021/05/21 00:30:33;;;;;;;5.05;1.42;;;12.40;79.50;;;;;;4962899;28;20074;-83
2021/05/21 00:33:00;;;;;;;4.75;1.50;;;12.40;79.50;;;;;;4948185;28;20042;-83
2021/05/21 00:35:25;;;;;;;3.30;1.20;;;12.40;79.50;;;;;;4979709;28;20083;-84
2021/05/21 00:37:51;;;;;;;2.92;1.48;;;12.40;79.60;;;;;;4961889;28;20597;-85
2021/05/21 00:40:17;;;;;;;4.35;1.42;;;12.40;79.70;;;;;;4956079;28;20113;-84
2021/05/21 00:42:43;;;;;;;4.53;1.33;;;12.40;79.80;;;;;;4960598;28;20027;-83
2021/05/21 00:45:09;;;;;;;3.42;1.42;;;12.40;80.00;;;;;;4956007;28;20513;-84
2021/05/21 00:47:35;;;;;;;2.63;1.40;;;12.40;79.90;;;;;;4938769;28;20043;-84
2021/05/21 00:50:02;;;;;;;6.82;1.55;;;12.40;79.90;;;;;;4974196;28;20046;-86
2021/05/21 00:52:28;;;;;;;3.47;1.50;;;12.40;80.10;;;;;;4946384;28;20401;-83
2021/05/21 00:54:54;;;;;;;4.18;1.58;;;12.50;80.40;;;;;;4963594;28;20046;-84
2021/05/21 00:57:20;;;;;;;3.58;1.13;;;12.50;80.40;;;;;;4963995;28;20051;-83
2021/05/21 00:59:46;;;;;;;3.72;1.30;;;12.50;80.20;;;;;;4962487;28;20101;-85
2021/05/21 01:02:12;;;;;;;2.58;1.10;;;12.50;80.10;;;;;;4980743;28;20043;-83
2021/05/21 01:04:39;;;;;;;4.82;1.60;;;12.50;80.10;;;;;;4994692;28;20038;-83
2021/05/21 01:07:05;;;;;;;2.28;1.23;;;12.50;80.20;;;;;;4967922;28;20509;-84
2021/05/21 01:09:32;;;;;;;2.08;1.30;;;12.50;80.20;;;;;;4959948;28;20111;-84
2021/05/21 01:11:58;;;;;;;3.72;1.40;;;12.50;80.30;;;;;;4985759;28;20031;-83
2021/05/21 01:14:23;;;;;;;4.50;1.30;;;12.50;80.20;;;;;;4955701;28;20039;-84
2021/05/21 01:16:51;;;;;;;2.88;1.40;;;12.60;80.40;;;;;;4959074;28;20043;-83
2021/05/21 01:19:17;;;;;;;2.25;1.50;;;12.60;80.60;;;;;;4962431;28;20039;-83
2021/05/21 01:21:43;;;;;;;4.00;1.05;;;12.60;80.70;;;;;;4962433;28;20045;-84
2021/05/21 01:24:09;;;;;;;2.33;1.20;;;12.60;80.90;;;;;;4961359;28;20043;-84
2021/05/21 01:26:37;;;;;;;2.05;1.23;;;12.50;81.10;;;;;;5001590;28;20043;-84
2021/05/21 01:29:06;;;;;;;3.47;1.10;;;12.50;81.00;;;;;;4956514;28;20066;-83
2021/05/21 01:31:33;;;;;;;4.63;1.40;;;12.60;81.00;;;;;;4962689;28;20141;-82
2021/05/21 01:34:00;;;;;;;3.42;1.38;;;12.60;81.00;;;;;;4962718;28;20122;-83
2021/05/21 01:36:26;;;;;;;3.58;1.17;;;12.60;81.00;;;;;;4960532;28;20067;-84
2021/05/21 01:39:00;;;;;;;4.10;1.30;;;12.60;81.10;;;;;;4973996;28;20469;-84
2021/05/21 01:41:28;;;;;;;4.60;1.48;;;12.70;81.20;;;;;;4960128;28;20043;-85
2021/05/21 01:43:56;;;;;;;5.85;1.67;;;12.60;81.20;;;;;;4973419;28;20042;-84
2021/05/21 01:46:22;;;;;;;5.72;1.30;;;12.70;81.30;;;;;;4948373;28;20058;-83
2021/05/21 01:48:48;;;;;;;2.50;1.00;;;12.70;81.10;;;;;;4976964;28;20520;-84
2021/05/21 01:51:14;;;;;;;3.88;1.50;;;12.70;81.10;;;;;;4979231;28;20125;-84
2021/05/21 01:53:40;;;;;;;3.78;1.40;;;12.70;81.10;;;;;;4961344;28;20027;-83
2021/05/21 01:56:07;;;;;;;4.55;1.30;;;12.80;81.10;;;;;;4957665;28;20490;-82
2021/05/21 01:58:33;;;;;;;3.65;1.48;;;12.80;81.30;;;;;;4951528;28;20039;-84
2021/05/21 02:00:59;;;;;;;4.75;1.38;;;12.80;81.20;;;;;;4980205;28;20053;-84
2021/05/21 02:03:28;;;;;;;1.92;1.30;;;12.80;81.10;;;;;;4954642;28;20114;-83
2021/05/21 02:05:54;;;;;;;3.45;1.27;;;12.80;81.00;;;;;;4969809;28;20043;-85
2021/05/21 02:08:25;;;;;;;5.22;1.50;;;12.80;81.00;;;;;;4960020;28;20038;-83
2021/05/21 02:10:52;;;;;;;3.83;1.35;;;12.80;80.80;;;;;;4963135;28;20272;-84
2021/05/21 02:13:18;;;;;;;5.43;1.48;;;12.90;80.80;;;;;;4959181;28;20747;-85
2021/05/21 02:15:45;;;;;;;3.38;1.30;;;12.90;80.90;;;;;;4961033;28;20034;-85
2021/05/21 02:18:11;;;;;;;4.05;1.25;;;12.90;80.90;;;;;;4976641;28;20173;-86
2021/05/21 02:20:37;;;;;;;5.45;1.33;;;12.90;81.00;;;;;;4960839;28;20110;-84
2021/05/21 02:23:05;;;;;;;5.85;1.55;;;13.00;81.60;;;;;;4956488;28;20069;-84
2021/05/21 02:25:31;;;;;;;8.82;2.05;;;12.90;83.40;;;;;;4957778;28;20402;-82
2021/05/21 02:27:57;;;;;;;5.90;1.73;;;12.70;84.70;;;;;;4972520;28;20038;-83
2021/05/21 02:30:24;;;;;;;6.93;1.83;;;12.50;86.10;;;;;;4953620;28;20105;-84
2021/05/21 02:32:50;;;;;;;7.78;1.80;;;12.30;88.50;;;;;;4962626;28;20059;-82
2021/05/21 02:35:16;;;;;;;5.05;2.25;;;12.10;88.70;;;;;;4978131;28;20039;-83
2021/05/21 02:37:43;;;;;;;4.68;2.28;;;11.90;89.30;;;;;;4958873;28;20387;-82
2021/05/21 02:40:09;;;;;;;6.43;2.30;;;11.80;90.00;;;;;;4946113;28;20162;-83
2021/05/21 02:42:36;;;;;;;4.75;2.03;;;11.70;90.30;;;;;;4948517;28;20039;-85
2021/05/21 02:45:03;;;;;;;4.57;2.08;;;11.70;90.60;;;;;;4967001;28;20113;-82
2021/05/21 02:47:31;;;;;;;4.10;1.73;;;11.60;90.80;;;;;;4986309;28;20039;-83
2021/05/21 02:49:57;;;;;;;4.97;1.90;;;11.60;90.80;;;;;;4965316;28;20039;-82
2021/05/21 02:52:24;;;;;;;5.53;2.00;;;11.60;91.00;;;;;;4969138;28;20058;-83
2021/05/21 02:54:49;;;;;;;7.43;2.40;;;11.60;91.00;;;;;;4953983;28;20283;-82
2021/05/21 02:57:15;;;;;;;10.93;2.63;;;11.60;91.10;;;;;;4969697;28;20073;-83
2021/05/21 02:59:41;;;;;;;15.15;2.67;;;11.70;91.10;;;;;;4972025;28;20034;-82
2021/05/21 03:02:07;;;;;;;13.55;2.20;;;11.70;90.80;;;;;;4966866;28;20066;-84
2021/05/21 03:04:32;;;;;;;14.73;2.40;;;11.70;90.90;;;;;;4967859;28;20071;-85
2021/05/21 03:06:58;;;;;;;16.52;3.20;;;11.70;90.60;;;;;;4938937;28;20647;-85
2021/05/21 03:09:24;;;;;;;16.10;3.03;;;11.70;90.40;;;;;;4974194;28;20414;-83
2021/05/21 03:11:50;;;;;;;19.38;3.10;;;11.70;90.40;;;;;;4967016;28;20667;-82
2021/05/21 03:14:16;;;;;;;17.40;3.15;;;11.60;90.40;;;;;;4964244;28;20035;-83
2021/05/21 03:16:42;;;;;;;24.98;3.33;;;11.60;90.50;;;;;;4953171;28;20807;-84
2021/05/21 03:19:08;;;;;;;19.25;3.30;;;11.50;90.60;;;;;;4968538;28;20086;-85
2021/05/21 03:21:34;;;;;;;20.25;3.17;;;11.50;90.60;;;;;;4963786;28;20038;-85
2021/05/21 03:24:00;;;;;;;21.65;3.50;;;11.50;90.50;;;;;;4963707;28;20043;-86
2021/05/21 03:26:26;;;;;;;21.13;3.83;;;11.50;90.50;;;;;;4947188;28;20561;-85
2021/05/21 03:28:52;;;;;;;24.25;4.32;;;11.40;90.50;;;;;;4960868;28;20031;-85
2021/05/21 03:31:18;;;;;;;13.95;2.83;;;11.40;90.90;;;;;;4963152;28;20102;-83
2021/05/21 03:33:43;;;;;;;20.92;3.55;;;11.30;90.70;;;;;;4968470;28;20039;-87
2021/05/21 03:36:10;;;;;;;22.92;4.00;;;11.30;90.90;;;;;;4964242;28;20078;-84
2021/05/21 03:38:37;;;;;;;20.42;2.97;;;11.30;90.90;;;;;;4962496;28;20075;-83
2021/05/21 03:41:02;;;;;;;25.25;3.55;;;11.20;91.00;;;;;;4970512;28;20035;-84
2021/05/21 03:43:28;;;;;;;23.77;3.67;;;11.20;91.10;;;;;;4949937;28;20039;-84
2021/05/21 03:45:54;;;;;;;24.48;3.83;;;11.20;91.20;;;;;;4976098;28;20047;-84
2021/05/21 03:48:20;;;;;;;21.27;3.78;;;11.20;91.30;;;;;;4957309;28;20046;-85
2021/05/21 03:50:46;;;;;;;17.17;3.85;;;11.20;91.30;;;;;;4964944;28;20041;-84
2021/05/21 03:53:12;;;;;;;22.35;4.10;;;11.20;91.40;;;;;;4951923;28;20129;-85
2021/05/21 03:55:37;;;;;;;19.55;2.83;;;11.10;91.50;;;;;;4969764;28;20174;-84
2021/05/21 03:58:03;;;;;;;20.50;2.90;;;11.10;91.70;;;;;;4950500;28;20041;-85
2021/05/21 04:00:29;;;;;;;17.10;2.90;;;11.10;91.70;;;;;;4960387;28;20035;-83
2021/05/21 04:02:55;;;;;;;21.20;3.63;;;11.10;91.50;;;;;;4964053;28;20072;-85
2021/05/21 04:05:21;;;;;;;17.45;3.65;;;11.20;91.40;;;;;;4968652;28;20051;-87
2021/05/21 04:07:49;;;;;;;20.38;2.83;;;11.10;91.30;;;;;;4967887;28;20038;-85
2021/05/21 04:10:15;;;;;;;24.85;3.33;;;11.10;91.00;;;;;;4967454;28;20049;-83
2021/05/21 04:12:42;;;;;;;19.63;3.47;;;11.00;90.80;;;;;;4969384;28;20038;-85
2021/05/21 04:15:09;;;;;;;21.35;3.22;;;11.10;90.80;;;;;;4959030;28;20117;-82
2021/05/21 04:17:34;;;;;;;21.23;3.85;;;11.10;90.70;;;;;;4951561;28;20043;-85
2021/05/21 04:20:00;;;;;;;24.25;3.00;;;11.10;90.60;;;;;;4969521;28;20037;-84
2021/05/21 04:22:26;;;;;;;20.95;3.17;;;11.00;90.50;;;;;;4984638;28;20046;-82
2021/05/21 04:24:52;;;;;;;16.92;3.00;;;11.10;90.60;;;;;;4939789;28;20047;-85
2021/05/21 04:27:18;;;;;;;20.00;3.25;;;11.10;90.60;;;;;;4952824;28;20134;-85
2021/05/21 04:29:44;;;;;;;21.20;3.20;;;11.00;90.70;;;;;;4969809;28;20053;-85
2021/05/21 04:32:10;;;;;;;19.65;3.53;;;10.90;90.80;;;;;;4970493;28;20042;-85
2021/05/21 04:34:35;;;;;;;20.65;3.95;;;10.90;91.10;;;;;;4977721;28;20473;-83
2021/05/21 04:37:02;;;;;;;19.52;3.60;;;10.80;91.40;;;;;;4970825;28;20158;-84
2021/05/21 04:39:28;;;;;;;18.17;3.35;;;10.70;91.50;;;;;;4991858;28;20085;-84
2021/05/21 04:41:54;;;;;;;25.33;3.83;;;10.70;91.70;;;;;;4954077;28;20042;-83
2021/05/21 04:44:20;;;;;;;26.05;4.03;;;10.70;91.90;;;;;;4973911;28;20066;-84
2021/05/21 04:46:46;;;;;;;23.88;4.05;;;10.60;91.90;;;;;;4966066;28;20885;-85
2021/05/21 04:49:31;;;;;;;18.75;3.05;;;10.60;92.00;;;;;;4968258;28;20133;-85
2021/05/21 04:52:08;;;;;;;25.52;4.45;;;10.60;92.10;;;;;;4968419;28;20038;-85
2021/05/21 04:54:35;;;;;;;21.52;3.45;;;10.50;92.10;;;;;;4955281;28;20050;-87
2021/05/21 04:57:02;;;;;;;18.30;3.58;;;10.50;92.20;;;;;;4973612;28;20043;-83
2021/05/21 04:59:28;;;;;;;21.95;2.92;;;10.50;92.30;;;;;;4990813;28;20042;-85
2021/05/21 05:01:54;;;;;;;22.10;3.45;;;10.50;92.30;;;;;;4989172;28;20042;-86
2021/05/21 05:04:20;;;;;;;19.88;3.40;;;10.50;92.40;;;;;;4944867;28;20039;-85
2021/05/21 05:06:46;;;;;;;22.60;3.70;;;10.50;92.40;;;;;;4981182;28;20041;-84
2021/05/21 05:09:13;;;;;;;19.33;3.70;;;10.60;92.60;;;;;;4968580;28;20474;-83
2021/05/21 05:11:41;;;;;;;19.85;4.15;;;10.60;92.80;;;;;;4966622;28;20050;-87
2021/05/21 05:14:09;;;;;;;23.20;4.00;;;10.60;93.00;;;;;;4978444;28;20035;-86
2021/05/21 05:16:35;;;;;;;25.35;3.80;;;10.70;93.10;;;;;;4995219;28;20121;-83
2021/05/21 05:19:02;;;;;;;25.00;3.80;;;10.70;93.20;;;;;;4975334;28;20066;-84
2021/05/21 05:21:31;;;;;;;28.20;4.20;;;10.70;93.20;;;;;;5004864;28;20050;-87
2021/05/21 05:23:57;;;;;;;17.88;3.65;;;10.80;93.30;;;;;;4981061;28;20101;-84
2021/05/21 05:26:23;;;;;;;27.88;4.40;;;10.80;93.40;;;;;;4956758;28;20490;-86
2021/05/21 05:28:49;;;;;;;18.48;2.97;;;10.80;93.30;;;;;;4965533;28;20058;-84
2021/05/21 05:31:16;;;;;;;23.08;4.03;;;10.90;93.30;;;;;;4971657;28;20117;-86
2021/05/21 05:33:42;;;;;;;24.02;3.50;;;10.90;93.20;;;;;;4967789;28;20500;-85
2021/05/21 05:36:08;;;;;;;21.58;3.13;;;10.90;93.20;;;;;;4963350;28;20402;-85
2021/05/21 05:38:35;;;;;;;19.27;4.25;;;11.00;93.00;;;;;;4964993;28;20035;-85
2021/05/21 05:41:01;;;;;;;23.35;4.03;;;11.00;92.90;;;;;;4966581;28;20096;-85
2021/05/21 05:43:27;;;;;;;26.13;4.88;;;11.10;92.90;;;;;;4999954;28;20037;-85
2021/05/21 05:45:53;;;;;;;21.80;3.50;;;11.10;92.70;;;;;;4967718;28;20758;-87
2021/05/21 05:48:19;;;;;;;23.05;3.80;;;11.20;92.70;;;;;;4941540;28;20286;-87
2021/05/21 05:50:52;;;;;;;25.02;5.38;;;11.30;92.60;;;;;;4962382;28;20065;-89
2021/05/21 05:53:18;;;;;;;20.42;3.90;;;11.40;92.40;;;;;;4962632;28;21602;-87
2021/05/21 05:55:45;;;;;;;27.20;4.00;;;11.40;92.30;;;;;;4936457;28;20093;-85
2021/05/21 05:58:11;;;;;;;24.08;3.92;;;11.50;92.20;;;;;;4961246;28;20158;-85
2021/05/21 06:00:39;;;;;;;25.08;4.35;;;11.60;92.30;;;;;;4988326;28;20035;-84
2021/05/21 06:03:09;;;;;;;24.40;3.75;;;11.60;92.00;;;;;;4969045;28;20126;-87
2021/05/21 06:05:36;;;;;;;21.27;3.70;;;11.60;91.90;;;;;;4985698;28;20247;-86
2021/05/21 06:08:04;;;;;;;25.23;4.50;;;11.70;91.70;;;;;;4975694;28;20172;-86
2021/05/21 06:10:31;;;;;;;24.35;4.20;;;11.70;91.50;;;;;;4965001;28;20065;-83
2021/05/21 06:13:05;;;;;;;25.17;4.10;;;11.60;91.50;;;;;;4970198;28;20042;-85
2021/05/21 06:15:31;;;;;;;22.20;3.58;;;11.60;91.60;;;;;;4971579;28;20046;-89
2021/05/21 06:17:58;;;;;;;26.10;4.50;;;11.70;91.50;;;;;;4970267;28;20058;-84
2021/05/21 06:20:25;;;;;;;30.17;4.10;;;11.70;91.40;;;;;;4961858;28;20031;-84
2021/05/21 06:22:51;;;;;;;23.50;3.63;;;11.60;91.30;;;;;;4964351;28;20192;-88
2021/05/21 06:25:20;;;;;;;24.13;4.10;;;11.60;91.30;;;;;;4964745;28;20541;-84
2021/05/21 06:27:46;;;;;;;28.95;4.47;;;11.60;91.40;;;;;;4968406;28;20043;-87
2021/05/21 06:30:13;;;;;;;28.27;4.53;;;11.70;91.50;;;;;;4962728;28;20145;-85
2021/05/21 06:32:40;;;;;;;20.83;3.88;;;11.80;91.40;;;;;;4963735;28;20031;-86
2021/05/21 06:35:07;;;;;;;27.95;4.00;;;11.90;91.20;;;;;;4966899;28;20035;-87
2021/05/21 06:37:34;;;;;;;26.27;4.30;;;12.00;91.10;;;;;;4949279;28;20341;-87
2021/05/21 06:40:01;;;;;;;21.88;3.78;;;12.10;91.00;;;;;;4963404;28;20062;-86
2021/05/21 06:42:27;;;;;;;16.98;3.22;;;12.20;90.30;;;;;;4965107;28;20322;-86
2021/05/21 06:44:53;;;;;;;22.25;3.60;;;12.30;89.30;;;;;;4978006;28;20490;-84
2021/05/21 06:47:19;;;;;;;18.20;3.65;;;12.40;88.60;;;;;;4944079;28;20073;-85
2021/05/21 06:49:47;;;;;;;19.92;3.92;;;12.50;87.90;;;;;;4950921;28;20409;-86
2021/05/21 06:52:14;;;;;;;16.55;3.20;;;12.60;87.10;;;;;;4966212;28;20054;-88
2021/05/21 06:54:41;;;;;;;23.75;3.95;;;12.70;85.40;;;;;;4953301;28;20051;-85
2021/05/21 06:57:07;;;;;;;16.33;3.78;;;12.80;84.80;;;;;;4979024;28;20066;-86
2021/05/21 06:59:33;;;;;;;18.58;2.80;;;12.90;85.00;;;;;;4974222;28;20114;-85
2021/05/21 07:01:59;;;;;;;20.73;3.75;;;13.00;84.10;;;;;;4960221;28;20367;-85
2021/05/21 07:04:26;;;;;;;27.35;4.18;;;13.20;83.20;;;;;;4951117;28;20070;-85
2021/05/21 07:06:52;;;;;;;19.35;4.03;;;13.30;83.10;;;;;;4954273;28;20053;-87
2021/05/21 07:09:18;;;;;;;18.83;3.35;;;13.40;81.60;;;;;;4970473;28;20418;-85
2021/05/21 07:11:43;;;;;;;22.60;3.60;;;13.50;81.30;;;;;;4969442;28;20031;-86
2021/05/21 07:14:10;;;;;;;23.73;4.40;;;13.50;81.20;;;;;;4970788;28;20050;-85
2021/05/21 07:16:37;;;;;;;19.92;3.58;;;13.50;81.90;;;;;;4968163;28;20129;-85
2021/05/21 07:19:03;;;;;;;21.80;4.78;;;13.50;81.30;;;;;;4964575;28;20031;-86
2021/05/21 07:21:29;;;;;;;21.50;3.78;;;13.50;81.70;;;;;;4969269;28;20085;-86
2021/05/21 07:23:55;;;;;;;25.35;4.40;;;13.40;82.00;;;;;;4951531;28;20121;-87
2021/05/21 07:26:21;;;;;;;16.88;3.17;;;13.40;82.60;;;;;;4966416;28;20453;-86
2021/05/21 07:28:47;;;;;;;17.40;3.40;;;13.40;82.10;;;;;;4950919;28;20078;-84
2021/05/21 07:31:14;;;;;;;20.70;3.70;;;13.50;81.70;;;;;;4965722;28;20724;-85
2021/05/21 07:33:40;;;;;;;16.73;3.40;;;13.60;81.50;;;;;;4964747;28;20039;-87
2021/05/21 07:36:06;;;;;;;13.10;3.10;;;13.70;80.80;;;;;;4950063;28;20077;-83
2021/05/21 07:38:33;;;;;;;20.25;3.70;;;13.70;80.60;;;;;;4967527;28;20402;-84
2021/05/21 07:41:00;;;;;;;13.60;3.15;;;13.70;80.00;;;;;;4951478;28;20043;-83
2021/05/21 07:43:26;;;;;;;19.13;3.05;;;13.70;78.70;;;;;;4951949;28;20053;-86
2021/05/21 07:45:51;;;;;;;17.92;3.20;;;13.70;78.80;;;;;;4971433;28;20042;-82
2021/05/21 07:48:17;;;;;;;22.45;3.85;;;13.80;78.60;;;;;;4965113;28;20652;-85
2021/05/21 07:50:43;;;;;;;22.55;3.50;;;13.80;77.90;;;;;;4953023;28;20054;-84
2021/05/21 07:53:10;;;;;;;19.10;3.75;;;13.90;78.70;;;;;;4966480;28;20030;-86
2021/05/21 07:55:36;;;;;;;18.75;3.30;;;13.90;78.50;;;;;;4959591;28;20035;-86
2021/05/21 07:58:02;;;;;;;19.23;3.45;;;14.00;78.10;;;;;;4996109;28;20026;-86
2021/05/21 08:00:28;;;;;;;22.67;3.30;;;14.00;78.10;;;;;;4962946;28;20129;-83
2021/05/21 08:02:54;;;;;;;20.05;4.15;;;14.10;77.90;;;;;;4946276;28;20471;-84
2021/05/21 08:05:20;;;;;;;17.27;3.28;;;14.00;76.50;;;;;;4944402;28;20094;-83
2021/05/21 08:07:46;;;;;;;17.48;3.58;;;13.90;75.20;;;;;;4960157;28;20045;-86
2021/05/21 08:10:12;;;;;;;18.55;4.18;;;13.80;75.30;;;;;;4945375;28;20069;-83
2021/05/21 08:12:37;;;;;;;16.95;3.53;;;13.70;76.00;;;;;;4963630;28;20045;-83
2021/05/21 08:15:04;;;;;;;20.65;3.17;;;13.60;76.60;;;;;;4958910;28;20054;-84
2021/05/21 08:17:33;;;;;;;15.75;3.35;;;13.60;75.80;;;;;;4959354;28;20038;-84
2021/05/21 08:19:59;;;;;;;18.95;3.17;;;13.50;76.20;;;;;;4965811;28;20058;-86
2021/05/21 08:22:25;;;;;;;15.50;3.20;;;13.40;76.00;;;;;;4978622;28;20065;-84
2021/05/21 08:24:51;;;;;;;13.63;2.50;;;13.40;76.40;;;;;;4967908;28;20040;-84
2021/05/21 08:27:17;;;;;;;20.90;3.25;;;13.30;75.50;;;;;;4976643;28;20306;-87
2021/05/21 08:29:43;;;;;;;14.90;3.25;;;13.40;74.20;;;;;;4968943;28;20030;-85
2021/05/21 08:32:09;;;;;;;20.48;3.30;;;13.40;74.00;;;;;;4932818;28;20031;-84
2021/05/21 08:34:35;;;;;;;18.65;3.38;;;13.40;74.60;;;;;;4946899;28;20043;-88
2021/05/21 08:37:01;;;;;;;16.95;3.22;;;13.50;73.90;;;;;;4954863;28;20034;-86
2021/05/21 08:39:27;;;;;;;11.52;2.30;;;13.50;73.70;;;;;;4957897;28;20030;-84
2021/05/21 08:41:57;;;;;;;13.20;2.47;;;13.60;72.50;;;;;;4978281;28;20248;-86
2021/05/21 08:44:24;;;;;;;15.95;3.17;;;13.70;72.20;;;;;;4981149;28;20066;-83
2021/05/21 08:46:51;;;;;;;14.15;2.35;;;13.70;71.40;;;;;;4961025;28;20069;-84
2021/05/21 08:49:19;;;;;;;12.82;2.75;;;13.80;71.90;;;;;;4944126;28;20133;-84
2021/05/21 08:51:45;;;;;;;13.50;2.35;;;13.90;70.90;;;;;;4960125;28;20034;-84
2021/05/21 08:54:11;;;;;;;13.95;2.90;;;14.00;69.20;;;;;;4960998;28;20406;-86
2021/05/21 08:56:38;;;;;;;11.07;2.45;;;14.10;69.70;;;;;;4960319;28;20039;-84
2021/05/21 08:59:04;;;;;;;15.65;3.10;;;14.20;69.20;;;;;;4965139;28;20038;-85
2021/05/21 09:01:30;;;;;;;19.77;3.05;;;14.40;68.40;;;;;;4957390;28;20043;-83
2021/05/21 09:04:02;;;;;;;17.42;2.67;;;14.60;68.70;;;;;;4965470;28;20070;-81
2021/05/21 09:06:30;;;;;;;;;;;14.70;66.90;;;;;;4973363;28;20031;-84
2021/05/21 09:08:59;;;;;;;16.73;3.08;;;14.70;67.50;;;;;;4964505;28;19922;-85
2021/05/21 09:11:40;;;;;;;19.10;3.17;;;14.80;68.00;;;;;;4961029;28;20199;-85
2021/05/21 09:14:18;;;;;;;19.33;2.55;;;14.80;65.90;;;;;;4963520;28;20045;-83
2021/05/21 09:16:45;;;;;;;14.25;3.17;;;14.90;67.30;;;;;;4963648;28;20737;-84
2021/05/21 09:19:14;;;;;;;14.63;2.60;;;15.10;66.70;;;;;;4961912;28;20043;-88
2021/05/21 09:22:00;;;;;;;16.90;2.90;;;15.10;65.20;;;;;;4962046;28;20124;-85
2021/05/21 09:24:45;;;;;;;18.90;3.05;;;15.10;64.20;;;;;;4991066;28;20030;-84
2021/05/21 09:27:13;;;;;;;14.07;2.85;;;15.00;62.50;;;;;;4963605;28;20557;-84
2021/05/21 09:29:47;;;;;;;13.90;2.90;;;14.90;63.90;;;;;;4968363;28;20035;-88
2021/05/21 09:32:19;;;;;;;14.98;2.90;;;14.80;64.40;;;;;;4990528;28;20049;-84
2021/05/21 09:34:49;;;;;;;14.65;2.90;;;14.80;64.20;;;;;;4979890;28;20031;-84
2021/05/21 09:37:25;;;;;;;16.70;2.60;;;14.80;66.00;;;;;;4977221;28;20039;-85
2021/05/21 09:40:08;;;;;;;11.07;2.40;;;14.90;65.90;;;;;;4962935;28;20043;-84
2021/05/21 09:42:50;;;;;;;16.90;2.90;;;15.00;65.50;;;;;;4965879;28;20047;-86
2021/05/21 09:45:25;;;;;;;17.33;2.58;;;15.00;63.40;;;;;;4970395;28;20996;-82
2021/05/21 09:47:55;;;;;;;15.88;2.33;;;15.00;65.20;;;;;;4965130;28;20050;-84
2021/05/21 09:50:42;;;;;;;11.80;2.53;;;15.20;65.90;;;;;;4964917;28;20126;-84
2021/05/21 09:53:14;;;;;;;11.38;2.15;;;15.30;64.70;;;;;;4963732;28;20673;-85
2021/05/21 09:55:54;;;;;;;10.60;2.40;;;15.20;63.30;;;;;;4963042;28;20521;-84
2021/05/21 09:58:31;;;;;;;13.38;2.70;;;15.10;62.40;;;;;;4939887;28;20080;-86
2021/05/21 10:01:20;;;;;;;17.10;2.97;;;15.10;63.10;;;;;;4974305;28;20034;-85
2021/05/21 10:03:53;;;;;;;10.60;2.40;;;15.20;64.40;;;;;;4966157;28;20047;-83
2021/05/21 10:06:20;;;;;;;;;;;15.30;64.60;;;;;;4980346;28;20039;-87
2021/05/21 10:08:48;;;;;;;14.13;2.47;;;15.30;65.20;;;;;;4963274;28;19922;-83
2021/05/21 10:11:15;;;;;;;10.60;2.80;;;15.20;65.70;;;;;;4975532;28;20271;-81
2021/05/21 10:13:47;;;;;;;15.63;2.92;;;15.00;65.00;;;;;;4963904;28;20046;-84
2021/05/21 10:16:15;;;;;;;12.25;2.53;;;14.50;71.00;;;;;;4929418;28;20055;-85
2021/05/21 10:18:46;;;;;;;12.40;2.15;;;13.30;77.50;;;;;;4971779;28;20247;-86
2021/05/21 10:21:14;;;;;;;9.65;2.17;;;12.30;82.90;;;;;;4988691;28;20574;-85
2021/05/21 10:23:41;;;;;;;8.27;1.67;;;11.70;86.80;;;;;;4957698;28;20073;-85
2021/05/21 10:26:14;;;;;;;9.05;2.17;;;11.50;89.80;;;;;;4960507;28;20497;-84
2021/05/21 10:28:43;;;;;;;14.98;2.70;;;11.50;90.60;;;;;;4963563;28;20113;-85
2021/05/21 10:31:12;;;;;;;16.20;3.55;;;11.50;90.90;;;;;;4975750;28;20510;-85
2021/05/21 10:33:39;;;;;;;12.55;3.08;;;11.60;91.20;;;;;;4978676;28;20035;-83
2021/05/21 10:36:23;;;;;;;12.18;3.65;;;11.60;91.40;;;;;;4961065;28;20174;-82
2021/05/21 10:39:09;;;;;;;12.20;2.15;;;11.60;91.90;;;;;;4974044;28;20087;-86
2021/05/21 10:41:37;;;;;;;17.08;3.42;;;11.40;91.30;;;;;;4946544;28;20055;-84
2021/05/21 10:44:19;;;;;;;11.50;2.50;;;11.10;91.40;;;;;;4972618;28;20042;-82
2021/05/21 10:46:48;;;;;;;12.88;2.80;;;10.80;91.70;;;;;;4972444;28;20039;-83
2021/05/21 10:49:25;;;;;;;11.43;2.10;;;10.60;92.00;;;;;;4944997;28;20068;-83
2021/05/21 10:52:00;;;;;;;15.68;2.83;;;10.50;92.50;;;;;;4944225;28;20035;-81
2021/05/21 10:54:36;;;;;;;13.52;3.10;;;10.50;92.70;;;;;;4948612;28;20203;-83
2021/05/21 10:57:12;;;;;;;19.02;3.90;;;10.70;93.40;;;;;;4963484;28;20042;-81
2021/05/21 10:59:58;;;;;;;15.52;3.30;;;10.90;93.90;;;;;;4974123;28;20054;-84
2021/05/21 11:02:26;;;;;;;19.80;3.50;;;11.20;94.50;;;;;;4983929;28;20062;-84
2021/05/21 11:04:53;;;;;;;18.65;3.63;;;11.40;93.90;;;;;;4973881;28;20232;-84
2021/05/21 11:07:39;;;;;;;16.15;2.63;;;11.60;93.90;;;;;;4946402;28;20486;-84
2021/05/21 11:10:07;;;;;;;15.13;3.38;;;11.70;94.00;;;;;;4979927;28;20034;-88
2021/05/21 11:12:43;;;;;;;13.30;2.75;;;11.90;93.80;;;;;;4960203;28;20058;-87
2021/05/21 11:15:35;;;;;;;15.60;3.40;;;11.80;93.30;;;;;;4966296;28;20502;-84
2021/05/21 11:18:26;;;;;;;14.55;3.33;;;11.80;92.50;;;;;;4966061;28;20038;-82
2021/05/21 11:20:56;;;;;;;17.65;3.58;;;11.60;92.30;;;;;;4992760;28;20054;-84
2021/05/21 11:23:23;;;;;;;12.10;3.00;;;11.50;92.60;;;;;;4967627;28;20039;-86
2021/05/21 11:26:14;;;;;;;18.60;4.00;;;11.60;92.70;;;;;;4965031;28;20065;-83
2021/05/21 11:28:53;;;;;;;18.63;3.60;;;11.60;92.70;;;;;;4975902;28;20039;-83
2021/05/21 11:31:28;;;;;;;17.55;3.40;;;11.70;93.00;;;;;;4963101;28;20043;-84
2021/05/21 11:33:57;;;;;;;14.80;3.83;;;12.00;92.90;;;;;;4979952;28;20093;-84
2021/05/21 11:36:24;;;;;;;14.30;3.35;;;12.20;93.00;;;;;;4957135;28;20031;-85
2021/05/21 11:38:51;;;;;;;14.23;3.38;;;12.50;93.00;;;;;;4964475;28;20401;-85
2021/05/21 11:41:18;;;;;;;13.55;3.15;;;12.60;92.40;;;;;;4955288;28;20050;-83
2021/05/21 11:43:48;;;;;;;11.20;2.83;;;12.60;91.30;;;;;;4962564;28;20346;-87
2021/05/21 11:46:20;;;;;;;13.05;3.45;;;12.70;91.00;;;;;;4965842;28;20569;-89
2021/05/21 11:48:48;;;;;;;11.77;2.92;;;12.80;90.10;;;;;;4969916;28;20039;-86
2021/05/21 11:51:22;;;;;;;13.82;3.50;;;12.80;89.20;;;;;;4979056;28;20440;-84
2021/05/21 11:54:04;;;;;;;18.50;3.33;;;13.00;89.90;;;;;;4981576;28;20031;-84
2021/05/21 11:56:30;;;;;;;13.77;2.97;;;13.20;90.30;;;;;;4970212;28;20172;-83
2021/05/21 11:59:04;;;;;;;15.38;2.97;;;13.50;88.60;;;;;;4969715;28;20129;-87
2021/05/21 12:01:32;;;;;;;15.90;3.13;;;13.70;87.30;;;;;;4937958;28;20306;-84
2021/05/21 12:04:06;;;;;;;14.25;2.88;;;13.90;86.50;;;;;;4952839;28;20045;-84
2021/05/21 12:06:36;;;;;;;15.27;3.00;;;14.00;84.70;;;;;;4969282;28;20038;-82
2021/05/21 12:09:09;;;;;;;14.40;2.78;;;14.10;84.30;;;;;;4978231;28;20041;-85
2021/05/21 12:11:35;;;;;;;19.73;3.17;;;14.20;82.90;;;;;;4999364;28;20338;-83
2021/05/21 12:14:05;;;;;;;13.73;2.67;;;14.10;82.50;;;;;;4972533;28;20311;-87
2021/05/21 12:16:32;;;;;;;15.55;2.58;;;14.10;82.90;;;;;;4968400;28;20118;-83
2021/05/21 12:19:03;;;;;;;10.60;2.33;;;14.10;83.00;;;;;;4951662;28;20490;-83
2021/05/21 12:21:31;;;;;;;14.32;2.58;;;14.10;80.80;;;;;;4969848;28;20049;-85
2021/05/21 12:23:58;;;;;;;13.02;2.42;;;14.20;81.30;;;;;;4974083;28;20050;-85
2021/05/21 12:26:31;;;;;;;10.80;2.30;;;14.20;81.00;;;;;;4962341;28;20737;-85
2021/05/21 12:28:58;;;;;;;17.10;3.42;;;14.20;80.20;;;;;;4965461;28;20039;-87
2021/05/21 12:31:30;;;;;;;15.00;3.88;;;14.10;79.70;;;;;;4970203;28;20031;-88
2021/05/21 12:33:58;;;;;;;13.77;2.53;;;13.90;78.20;;;;;;4967733;28;20050;-89
2021/05/21 12:36:26;;;;;;;19.73;2.83;;;13.70;78.60;;;;;;4978525;28;20035;-85
2021/05/21 12:38:57;;;;;;;15.60;3.00;;;13.60;80.40;;;;;;4977399;28;20114;-82
2021/05/21 12:41:35;;;;;;;16.02;2.88;;;13.60;82.80;;;;;;4961750;28;20045;-87
2021/05/21 12:44:11;;;;;;;14.65;2.65;;;13.80;84.10;;;;;;4966517;28;20171;-83
2021/05/21 12:46:49;;;;;;;11.98;2.85;;;13.90;84.30;;;;;;4966597;28;20031;-85